Almira, Washington
Current Conditions -  °F | °C
As of 5:53 PM on Friday 19 Dec 2014 (Local Time) from KEPH Reporting Station
Clear Clear  
Wind Chill: 30°   Ceiling: Unl
Heat Index: 34°   Visibility: 7mi
Dew Point: 33°   Wind: 5mph
Humidity: 96%   Direction: 350°N
Pressure: 29.96"   Gusts: NA
Location:  47.71°N, 118.94°W
Report Text: KEPH 200153Z AUTO 35004KT 7SM CLR 01/01 A2996 RMK AO2 SLP158 T00110006
Loading
Personal Weather Stations






























Interactive Weather Map New forecast layout! Learn more

10-Day Weather Forecast

Advertisements
Track Severe Weather on mobile